Time;durP1;ratioP1;P1;durP2;ratioP2;P2;SDS_P1;SDS_P2;PMS_P1;PMS_P2;Temp;Humidity;BMP_temperature;BMP_pressure;BME280_temperature;BME280_humidity;BME280_pressure;Samples;Min_cycle;Max_cycle;Signal;HPM_P1;HPM_P2
2022/07/31 00:00:46;;;;;;;;;0.00;0.00;;;;;-145.45;100.00;57426.63;5080897;27;44723;-72
2022/07/31 00:03:11;;;;;;;;;1.00;1.00;;;;;-145.45;100.00;57426.63;5080870;28;45305;-72
2022/07/31 00:05:36;;;;;;;;;0.33;0.33;;;;;-145.45;100.00;57426.63;5080549;28;45332;-72
2022/07/31 00:08:03;;;;;;;;;1.00;1.00;;;;;-145.45;100.00;57426.63;5080335;28;46268;-72
2022/07/31 00:10:28;;;;;;;;;1.00;1.00;;;;;-145.45;100.00;57426.63;5080372;28;45312;-72
2022/07/31 00:12:53;;;;;;;;;1.67;1.67;;;;;-145.45;100.00;57426.63;5080724;27;45229;-72
2022/07/31 00:15:20;;;;;;;;;1.00;1.00;;;;;-145.45;100.00;57426.63;5080593;27;45258;-72
2022/07/31 00:17:46;;;;;;;;;1.00;1.00;;;;;-145.45;100.00;57426.63;5079678;28;46425;-72
2022/07/31 00:20:13;;;;;;;;;1.00;1.00;;;;;-145.45;100.00;57426.63;5080169;27;45248;-72
2022/07/31 00:22:47;;;;;;;;;1.00;1.00;;;;;-145.45;100.00;57426.63;5080366;27;45431;-72
2022/07/31 00:25:14;;;;;;;;;1.00;1.00;;;;;-145.45;100.00;57426.63;5088355;27;45193;-72
2022/07/31 00:27:40;;;;;;;;;1.00;1.00;;;;;-145.45;100.00;57426.63;5086615;27;45315;-72
2022/07/31 00:30:07;;;;;;;;;1.00;1.00;;;;;-145.45;100.00;57426.63;5080387;28;45339;-72
2022/07/31 00:32:32;;;;;;;;;3.67;2.33;;;;;-145.45;100.00;57426.63;5062166;28;45320;-72
2022/07/31 00:34:57;;;;;;;;;2.00;2.00;;;;;-145.45;100.00;57426.63;5084910;27;45323;-72
2022/07/31 00:37:23;;;;;;;;;2.67;0.67;;;;;-145.45;100.00;57426.63;5061706;28;46579;-72
2022/07/31 00:39:48;;;;;;;;;1.00;1.00;;;;;-145.45;100.00;57426.63;5086958;27;45222;-72
2022/07/31 00:42:19;;;;;;;;;0.33;0.33;;;;;-145.45;100.00;57426.63;5100744;27;45248;-72
2022/07/31 00:44:44;;;;;;;;;3.00;1.00;;;;;-145.45;100.00;57426.63;5100560;27;45403;-72
2022/07/31 00:47:09;;;;;;;;;0.00;0.00;;;;;-145.45;100.00;57426.63;5081950;27;47208;-72
2022/07/31 00:49:35;;;;;;;;;0.67;0.67;;;;;-145.45;100.00;57426.63;5100522;27;45334;-72
2022/07/31 00:52:00;;;;;;;;;0.00;0.00;;;;;-145.45;100.00;57426.63;5082157;27;45276;-72
2022/07/31 00:54:26;;;;;;;;;1.00;1.00;;;;;-145.45;100.00;57426.63;5100320;27;45284;-72
2022/07/31 00:56:51;;;;;;;;;1.00;1.00;;;;;-145.45;100.00;57426.63;5081092;27;46607;-72
2022/07/31 00:59:16;;;;;;;;;0.00;0.00;;;;;-145.45;100.00;57426.63;5100414;27;45340;-72
2022/07/31 01:01:42;;;;;;;;;0.00;0.00;;;;;-145.45;100.00;57426.63;5100674;27;45366;-72
2022/07/31 01:04:07;;;;;;;;;1.00;1.00;;;;;-145.45;100.00;57426.63;5081517;27;45719;-72
2022/07/31 01:06:32;;;;;;;;;1.00;1.00;;;;;-145.45;100.00;57426.63;5100027;27;46283;-73
2022/07/31 01:08:58;;;;;;;;;1.00;1.00;;;;;-145.45;100.00;57426.63;5100199;27;45318;-72
2022/07/31 01:11:37;;;;;;;;;1.00;1.00;;;;;-145.45;100.00;57426.63;5100438;27;45339;-72
2022/07/31 01:14:06;;;;;;;;;1.00;1.00;;;;;-145.45;100.00;57426.63;5100245;27;45208;-73
2022/07/31 01:16:45;;;;;;;;;1.00;1.00;;;;;-145.45;100.00;57426.63;5100085;27;45327;-73
2022/07/31 01:19:22;;;;;;;;;2.00;2.00;;;;;-145.45;100.00;57426.63;5100237;27;45222;-72
2022/07/31 01:22:02;;;;;;;;;3.00;3.00;;;;;-145.45;100.00;57426.63;5099874;27;45252;-72
2022/07/31 01:25:06;;;;;;;;;0.67;0.67;;;;;-145.45;100.00;57426.63;5081144;27;45331;-71
2022/07/31 01:28:01;;;;;;;;;4.00;2.00;;;;;-145.45;100.00;57426.63;5086961;27;46185;-72
2022/07/31 01:30:35;;;;;;;;;3.00;2.00;;;;;-145.45;100.00;57426.63;5079521;28;45320;-72
2022/07/31 01:33:09;;;;;;;;;2.00;2.00;;;;;-145.45;100.00;57426.63;5081434;28;45276;-72
2022/07/31 01:35:42;;;;;;;;;4.00;3.00;;;;;-145.45;100.00;57426.63;5087483;27;45542;-72
2022/07/31 01:38:12;;;;;;;;;3.00;3.00;;;;;-145.45;100.00;57426.63;5082203;28;46282;-72
2022/07/31 01:40:44;;;;;;;;;1.67;1.67;;;;;-145.45;100.00;57426.63;5082842;27;45400;-72
2022/07/31 01:43:21;;;;;;;;;5.33;4.67;;;;;-145.45;100.00;57426.63;5083173;28;45708;-72
2022/07/31 01:45:50;;;;;;;;;7.67;5.67;;;;;-145.45;100.00;57426.63;5082732;28;45306;-72
2022/07/31 01:48:16;;;;;;;;;4.33;3.67;;;;;-145.45;100.00;57426.63;5070875;28;45715;-71
2022/07/31 01:50:45;;;;;;;;;4.00;4.00;;;;;-145.45;100.00;57426.63;5082898;27;45174;-72
2022/07/31 01:53:16;;;;;;;;;4.00;3.67;;;;;-145.45;100.00;57426.63;5082693;27;45339;-72
2022/07/31 01:55:42;;;;;;;;;6.00;5.00;;;;;-145.45;100.00;57426.63;5082557;27;45247;-72
2022/07/31 01:58:10;;;;;;;;;6.33;4.67;;;;;-145.45;100.00;57426.63;5082494;27;45216;-72
2022/07/31 02:00:37;;;;;;;;;5.00;5.00;;;;;-145.45;100.00;57426.63;5082564;27;45344;-72
2022/07/31 02:03:04;;;;;;;;;9.67;6.33;;;;;-145.45;100.00;57426.63;5082696;27;45324;-71
2022/07/31 02:05:32;;;;;;;;;5.67;4.67;;;;;-145.45;100.00;57426.63;5082382;27;45233;-71
2022/07/31 02:07:58;;;;;;;;;4.00;4.00;;;;;-145.45;100.00;57426.63;5082276;27;46397;-71
2022/07/31 02:10:24;;;;;;;;;2.00;2.00;;;;;-145.45;100.00;57426.63;5082416;27;45234;-72
2022/07/31 02:12:50;;;;;;;;;5.00;4.00;;;;;-145.45;100.00;57426.63;5082505;27;45364;-72
2022/07/31 02:15:16;;;;;;;;;4.00;4.00;;;;;-145.45;100.00;57426.63;5082206;27;45246;-71
2022/07/31 02:17:43;;;;;;;;;4.33;4.33;;;;;-145.45;100.00;57426.63;5082257;28;45384;-72
2022/07/31 02:20:11;;;;;;;;;7.67;6.00;;;;;-145.45;100.00;57426.63;5082178;27;45291;-71
2022/07/31 02:22:37;;;;;;;;;5.33;4.67;;;;;-145.45;100.00;57426.63;5082188;28;45165;-71
2022/07/31 02:25:04;;;;;;;;;4.00;3.00;;;;;-145.45;100.00;57426.63;5082067;27;45294;-72
2022/07/31 02:27:32;;;;;;;;;3.00;3.00;;;;;-145.45;100.00;57426.63;5081760;27;46181;-72
2022/07/31 02:30:01;;;;;;;;;2.33;2.00;;;;;-145.45;100.00;57426.63;5082031;27;45296;-72
2022/07/31 02:32:28;;;;;;;;;2.00;1.00;;;;;-145.45;100.00;57426.63;5082316;27;45238;-72
2022/07/31 02:34:55;;;;;;;;;2.33;1.67;;;;;-145.45;100.00;57426.63;5086711;27;45773;-71
2022/07/31 02:37:22;;;;;;;;;3.33;2.00;;;;;-145.45;100.00;57426.63;5063702;28;46616;-72
2022/07/31 02:39:51;;;;;;;;;2.00;2.00;;;;;-145.45;100.00;57426.63;5088931;27;45244;-72
2022/07/31 02:42:16;;;;;;;;;4.00;2.33;;;;;-145.45;100.00;57426.63;5102318;27;45236;-72
2022/07/31 02:44:43;;;;;;;;;2.00;2.00;;;;;-145.45;100.00;57426.63;5100990;27;45414;-72
2022/07/31 02:47:09;;;;;;;;;1.00;1.00;;;;;-145.45;100.00;57426.63;5102429;27;45235;-72
2022/07/31 02:49:36;;;;;;;;;1.00;1.00;;;;;-145.45;100.00;57426.63;5102398;27;45313;-72
2022/07/31 02:52:04;;;;;;;;;1.67;1.67;;;;;-145.45;100.00;57426.63;5102134;27;45400;-71
2022/07/31 02:54:29;;;;;;;;;2.67;1.00;;;;;-145.45;100.00;57426.63;5102245;27;45468;-71
2022/07/31 02:56:55;;;;;;;;;2.00;2.00;;;;;-145.45;100.00;57426.63;5101118;27;45487;-72
2022/07/31 02:59:21;;;;;;;;;2.67;0.67;;;;;-145.45;100.00;57426.63;5102447;27;45430;-71
2022/07/31 03:01:46;;;;;;;;;1.00;1.00;;;;;-145.45;100.00;57426.63;5102279;27;45165;-72
2022/07/31 03:04:12;;;;;;;;;1.67;1.67;;;;;-145.45;100.00;57426.63;5102245;27;45292;-72
2022/07/31 03:06:38;;;;;;;;;2.00;2.00;;;;;-145.45;100.00;57426.63;5101735;27;45250;-71
2022/07/31 03:09:03;;;;;;;;;1.00;1.00;;;;;-145.45;100.00;57426.63;5102211;27;45229;-72
2022/07/31 03:11:28;;;;;;;;;2.00;2.00;;;;;-145.45;100.00;57426.63;5102252;27;45287;-72
2022/07/31 03:13:57;;;;;;;;;1.67;1.67;;;;;-145.45;100.00;57426.63;5101947;27;45142;-71
2022/07/31 03:16:24;;;;;;;;;4.00;3.00;;;;;-145.45;100.00;57426.63;5101799;27;45330;-71
2022/07/31 03:18:51;;;;;;;;;7.33;5.00;;;;;-145.45;100.00;57426.63;5101870;27;45272;-72
2022/07/31 03:21:18;;;;;;;;;5.00;5.00;;;;;-145.45;100.00;57426.63;5101694;27;45173;-72
2022/07/31 03:23:44;;;;;;;;;6.33;5.67;;;;;-145.45;100.00;57426.63;5101785;27;45566;-72
2022/07/31 03:26:10;;;;;;;;;5.33;5.33;;;;;-145.45;100.00;57426.63;5082053;27;48107;-72
2022/07/31 03:28:35;;;;;;;;;5.00;5.00;;;;;-145.45;100.00;57426.63;5081304;28;45254;-72
2022/07/31 03:31:01;;;;;;;;;4.67;3.33;;;;;-145.45;100.00;57426.63;5080050;27;45321;-72
2022/07/31 03:33:27;;;;;;;;;4.00;4.00;;;;;-145.45;100.00;57426.63;5081260;28;45270;-72
2022/07/31 03:35:52;;;;;;;;;7.00;6.33;;;;;-145.45;100.00;57426.63;5067433;27;47129;-72
2022/07/31 03:38:19;;;;;;;;;5.00;5.00;;;;;-145.45;100.00;57426.63;5080894;28;45355;-71
2022/07/31 03:40:44;;;;;;;;;6.33;5.33;;;;;-145.45;100.00;57426.63;5081321;28;45257;-72
2022/07/31 03:43:10;;;;;;;;;7.00;6.00;;;;;-145.45;100.00;57426.63;5066597;28;45772;-71
2022/07/31 03:45:37;;;;;;;;;7.67;6.67;;;;;-145.45;100.00;57426.63;5063081;27;46924;-72
2022/07/31 03:48:03;;;;;;;;;10.33;8.67;;;;;-145.45;100.00;57426.63;5082962;27;45292;-72
2022/07/31 03:50:29;;;;;;;;;7.00;7.00;;;;;-145.45;100.00;57426.63;5101350;27;45224;-72
2022/07/31 03:52:55;;;;;;;;;7.67;7.67;;;;;-145.45;100.00;57426.63;5101293;27;45285;-72
2022/07/31 03:55:21;;;;;;;;;8.00;7.00;;;;;-145.45;100.00;57426.63;5099804;27;46263;-72
2022/07/31 03:57:48;;;;;;;;;9.33;9.33;;;;;-145.45;100.00;57426.63;5101184;27;45474;-71
2022/07/31 04:00:14;;;;;;;;;7.33;6.33;;;;;-145.45;100.00;57426.63;5101305;27;45292;-72
2022/07/31 04:02:40;;;;;;;;;8.00;8.00;;;;;-145.45;100.00;57426.63;5101164;27;45246;-72
2022/07/31 04:05:06;;;;;;;;;6.67;6.67;;;;;-145.45;100.00;57426.63;5082454;27;48196;-71
2022/07/31 04:07:31;;;;;;;;;7.00;7.00;;;;;-145.45;100.00;57426.63;5100870;27;45673;-72
2022/07/31 04:09:56;;;;;;;;;8.00;8.00;;;;;-145.45;100.00;57426.63;5082994;27;45234;-72
2022/07/31 04:12:22;;;;;;;;;10.33;9.67;;;;;-145.45;100.00;57426.63;5100948;27;45151;-72
2022/07/31 04:14:47;;;;;;;;;8.00;8.00;;;;;-145.45;100.00;57426.63;5082453;27;46872;-71
2022/07/31 04:17:12;;;;;;;;;7.00;7.00;;;;;-145.45;100.00;57426.63;5101308;27;45139;-72
2022/07/31 04:19:38;;;;;;;;;7.67;7.67;;;;;-145.45;100.00;57426.63;5101095;27;45260;-72
2022/07/31 04:22:04;;;;;;;;;6.00;6.00;;;;;-145.45;100.00;57426.63;5100864;27;45216;-72
2022/07/31 04:24:29;;;;;;;;;7.00;7.00;;;;;-145.45;100.00;57426.63;5100809;27;45648;-72
2022/07/31 04:26:55;;;;;;;;;5.33;5.33;;;;;-145.45;100.00;57426.63;5093303;27;45359;-72
2022/07/31 04:29:21;;;;;;;;;8.00;6.33;;;;;-145.45;100.00;57426.63;5080448;28;45260;-71
2022/07/31 04:31:46;;;;;;;;;7.67;6.67;;;;;-145.45;100.00;57426.63;5078482;28;45514;-71
2022/07/31 04:34:12;;;;;;;;;7.00;5.67;;;;;-145.45;100.00;57426.63;5084620;27;45416;-72
2022/07/31 04:36:38;;;;;;;;;7.00;5.33;;;;;-145.45;100.00;57426.63;5080042;27;45248;-72
2022/07/31 04:39:04;;;;;;;;;6.67;5.67;;;;;-145.45;100.00;57426.63;5080182;28;45558;-72
2022/07/31 04:41:29;;;;;;;;;4.33;4.33;;;;;-145.45;100.00;57426.63;5080090;28;45229;-71
2022/07/31 04:43:58;;;;;;;;;5.33;5.33;;;;;-145.45;100.00;57426.63;5079938;27;45221;-72
2022/07/31 04:46:24;;;;;;;;;6.33;6.33;;;;;-145.45;100.00;57426.63;5080435;28;45364;-71
2022/07/31 04:48:50;;;;;;;;;5.33;5.33;;;;;-145.45;100.00;57426.63;5079404;27;45286;-71
2022/07/31 04:51:20;;;;;;;;;5.00;5.00;;;;;-145.45;100.00;57426.63;5079812;28;45304;-71
2022/07/31 04:53:46;;;;;;;;;4.33;4.33;;;;;-145.45;100.00;57426.63;5079787;28;45451;-72
2022/07/31 04:58:56;;;;;;;;;5.67;5.67;;;;;-145.45;100.00;57426.63;5080111;28;45325;-73
2022/07/31 05:01:22;;;;;;;;;5.00;5.00;;;;;-145.45;100.00;57426.63;5080099;28;45184;-74
2022/07/31 05:03:47;;;;;;;;;3.00;3.00;;;;;-145.45;100.00;57426.63;5079714;27;46115;-71
2022/07/31 05:06:13;;;;;;;;;4.00;4.00;;;;;-145.45;100.00;57426.63;5079522;28;45407;-72
2022/07/31 05:08:38;;;;;;;;;3.67;3.67;;;;;-145.45;100.00;57426.63;5079183;28;45471;-73
2022/07/31 05:11:22;;;;;;;;;6.33;5.33;;;;;-145.45;100.00;57426.63;5067403;28;47277;-71
2022/07/31 05:13:55;;;;;;;;;4.33;4.33;;;;;-145.45;100.00;57426.63;5076485;28;47155;-71
2022/07/31 05:16:22;;;;;;;;;4.67;3.33;;;;;-145.45;100.00;57426.63;5079689;28;45228;-71
2022/07/31 05:18:48;;;;;;;;;4.67;3.33;;;;;-145.45;100.00;57426.63;5079039;27;45371;-73
2022/07/31 05:21:14;;;;;;;;;4.00;4.00;;;;;-145.45;100.00;57426.63;5079521;28;45231;-73
2022/07/31 05:23:41;;;;;;;;;6.00;6.00;;;;;-145.45;100.00;57426.63;5079520;28;45351;-72
2022/07/31 05:26:07;;;;;;;;;8.00;5.00;;;;;-145.45;100.00;57426.63;5079278;28;45273;-71
2022/07/31 05:28:33;;;;;;;;;4.67;3.67;;;;;-145.45;100.00;57426.63;5079673;27;45457;-71
2022/07/31 05:30:59;;;;;;;;;5.67;3.00;;;;;-145.45;100.00;57426.63;5079559;28;45354;-71
2022/07/31 05:33:24;;;;;;;;;4.33;4.00;;;;;-145.45;100.00;57426.63;5079673;27;45344;-73
2022/07/31 05:35:50;;;;;;;;;3.67;3.67;;;;;-145.45;100.00;57426.63;5065756;28;45296;-71
2022/07/31 05:38:15;;;;;;;;;5.00;5.00;;;;;-145.45;100.00;57426.63;5079233;28;45242;-71
2022/07/31 05:40:41;;;;;;;;;4.00;4.00;;;;;-145.45;100.00;57426.63;5072341;27;46108;-71
2022/07/31 05:43:06;;;;;;;;;4.33;4.33;;;;;-145.45;100.00;57426.63;5061152;28;47039;-73
2022/07/31 05:45:32;;;;;;;;;4.00;4.00;;;;;-145.45;100.00;57426.63;5079439;27;45245;-71
2022/07/31 05:47:57;;;;;;;;;5.00;4.00;;;;;-145.45;100.00;57426.63;5079426;27;45331;-72
2022/07/31 05:50:23;;;;;;;;;5.00;5.00;;;;;-145.45;100.00;57426.63;5079289;27;45439;-72
2022/07/31 05:52:48;;;;;;;;;6.00;4.00;;;;;-145.45;100.00;57426.63;5079057;28;46101;-71
2022/07/31 05:55:14;;;;;;;;;3.00;3.00;;;;;-145.45;100.00;57426.63;5079217;28;45284;-74
2022/07/31 05:57:40;;;;;;;;;5.33;4.67;;;;;-145.45;100.00;57426.63;5060657;28;45403;-73
2022/07/31 06:00:06;;;;;;;;;7.00;5.00;;;;;-145.45;100.00;57426.63;5078960;28;45237;-71
2022/07/31 06:02:31;;;;;;;;;2.67;2.67;;;;;-145.45;100.00;57426.63;5079034;28;45350;-71
2022/07/31 06:04:56;;;;;;;;;3.00;3.00;;;;;-145.45;100.00;57426.63;5078923;28;45249;-72
2022/07/31 06:07:22;;;;;;;;;6.00;5.00;;;;;-145.45;100.00;57426.63;5079059;27;45366;-71
2022/07/31 06:09:47;;;;;;;;;3.33;3.33;;;;;-145.45;100.00;57426.63;5078915;28;45587;-71
2022/07/31 06:12:12;;;;;;;;;7.00;4.00;;;;;-145.45;100.00;57426.63;5078993;28;45297;-73
2022/07/31 06:14:38;;;;;;;;;4.00;3.67;;;;;-145.45;100.00;57426.63;5078868;27;45269;-71
2022/07/31 06:17:04;;;;;;;;;6.00;4.33;;;;;-145.45;100.00;57426.63;5079203;28;45299;-71
2022/07/31 06:19:33;;;;;;;;;5.00;5.00;;;;;-145.45;100.00;57426.63;5081208;28;45236;-71
2022/07/31 06:21:59;;;;;;;;;4.67;3.67;;;;;-145.45;100.00;57426.63;5063391;28;46760;-72
2022/07/31 06:24:24;;;;;;;;;3.33;3.33;;;;;-145.45;100.00;57426.63;5082273;27;45158;-71
2022/07/31 06:26:50;;;;;;;;;3.67;3.67;;;;;-145.45;100.00;57426.63;5080846;28;45417;-71
2022/07/31 06:29:15;;;;;;;;;4.67;4.33;;;;;-145.45;100.00;57426.63;5080769;27;45309;-71
2022/07/31 06:31:41;;;;;;;;;3.67;3.67;;;;;-145.45;100.00;57426.63;5082044;27;45416;-71
2022/07/31 06:34:06;;;;;;;;;3.00;3.00;;;;;-145.45;100.00;57426.63;5086574;27;45289;-73
2022/07/31 06:36:31;;;;;;;;;5.67;5.00;;;;;-145.45;100.00;57426.63;5082024;27;45300;-72
2022/07/31 06:38:57;;;;;;;;;3.33;3.33;;;;;-145.45;100.00;57426.63;5081979;28;45334;-71
2022/07/31 06:44:06;;;;;;;;;3.00;3.00;;;;;-145.45;100.00;57426.63;5082022;27;45331;-71
2022/07/31 06:46:32;;;;;;;;;5.33;4.33;;;;;-145.45;100.00;57426.63;5082009;28;45297;-72
2022/07/31 06:48:57;;;;;;;;;5.33;4.67;;;;;-145.45;100.00;57426.63;5063598;27;46157;-71
2022/07/31 06:51:22;;;;;;;;;4.00;4.00;;;;;-145.45;100.00;57426.63;5081638;28;46164;-71
2022/07/31 06:53:48;;;;;;;;;4.67;4.67;;;;;-145.45;100.00;57426.63;5081892;27;48167;-72
2022/07/31 06:56:13;;;;;;;;;6.33;6.00;;;;;-145.45;100.00;57426.63;5081893;28;45246;-72
2022/07/31 06:58:38;;;;;;;;;4.00;4.00;;;;;-145.45;100.00;57426.63;5081840;27;45214;-71
2022/07/31 07:01:04;;;;;;;;;5.33;4.33;;;;;-145.45;100.00;57426.63;5081768;27;46278;-71
2022/07/31 07:03:29;;;;;;;;;5.67;5.67;;;;;-145.45;100.00;57426.63;5081666;27;45316;-71
2022/07/31 07:05:54;;;;;;;;;5.33;3.67;;;;;-145.45;100.00;57426.63;5081582;27;45343;-72
2022/07/31 07:08:19;;;;;;;;;5.33;4.67;;;;;-145.45;100.00;57426.63;5081852;27;45304;-71
2022/07/31 07:10:45;;;;;;;;;5.33;4.00;;;;;-145.45;100.00;57426.63;5081361;28;48306;-72
2022/07/31 07:13:10;;;;;;;;;4.67;4.67;;;;;-145.45;100.00;57426.63;5081683;27;45145;-71
2022/07/31 07:15:35;;;;;;;;;5.00;4.33;;;;;-145.45;100.00;57426.63;5081651;27;45506;-72
2022/07/31 07:18:01;;;;;;;;;5.67;4.33;;;;;-145.45;100.00;57426.63;5081489;27;45384;-72
2022/07/31 07:20:26;;;;;;;;;5.33;5.33;;;;;-145.45;100.00;57426.63;5081319;28;46089;-72
2022/07/31 07:22:51;;;;;;;;;4.67;4.67;;;;;-145.45;100.00;57426.63;5081213;28;45174;-72
2022/07/31 07:25:19;;;;;;;;;5.33;5.33;;;;;-145.45;100.00;57426.63;5063170;28;45725;-72
2022/07/31 07:27:45;;;;;;;;;6.00;6.00;;;;;-145.45;100.00;57426.63;5080470;27;45555;-72
2022/07/31 07:30:10;;;;;;;;;5.00;5.00;;;;;-145.45;100.00;57426.63;5080215;28;45384;-73
2022/07/31 07:32:36;;;;;;;;;6.67;5.67;;;;;-145.45;100.00;57426.63;5080381;28;45352;-73
2022/07/31 07:35:02;;;;;;;;;6.00;5.00;;;;;-145.45;100.00;57426.63;5086161;27;45279;-74
2022/07/31 07:37:28;;;;;;;;;6.67;6.67;;;;;-145.45;100.00;57426.63;5080643;28;45911;-73
2022/07/31 07:39:54;;;;;;;;;4.00;4.00;;;;;-145.45;100.00;57426.63;5081056;28;45411;-73
2022/07/31 07:42:19;;;;;;;;;7.00;5.33;;;;;-145.45;100.00;57426.63;5080972;27;45360;-73
2022/07/31 07:44:44;;;;;;;;;6.00;5.33;;;;;-145.45;100.00;57426.63;5081256;28;45288;-71
2022/07/31 07:47:10;;;;;;;;;7.00;7.00;;;;;-145.45;100.00;57426.63;5080830;28;51552;-71
2022/07/31 07:49:35;;;;;;;;;7.00;5.00;;;;;-145.45;100.00;57426.63;5080870;28;45262;-71
2022/07/31 07:52:01;;;;;;;;;6.00;6.00;;;;;-145.45;100.00;57426.63;5080302;28;45210;-71
2022/07/31 07:54:27;;;;;;;;;6.00;6.00;;;;;-145.45;100.00;57426.63;5079681;28;45248;-71
2022/07/31 07:56:53;;;;;;;;;6.67;6.67;;;;;-145.45;100.00;57426.63;5062487;28;46850;-71
2022/07/31 07:59:19;;;;;;;;;6.00;6.00;;;;;-145.45;100.00;57426.63;5087607;27;46077;-73
2022/07/31 08:01:44;;;;;;;;;6.00;6.00;;;;;-145.45;100.00;57426.63;5101215;27;45280;-73
2022/07/31 08:04:10;;;;;;;;;4.00;4.00;;;;;-145.45;100.00;57426.63;5101445;27;45244;-74
2022/07/31 08:06:35;;;;;;;;;6.00;5.00;;;;;-145.45;100.00;57426.63;5100048;27;45350;-74
2022/07/31 08:09:00;;;;;;;;;6.33;5.00;;;;;-145.45;100.00;57426.63;5101057;27;45486;-74
2022/07/31 08:11:26;;;;;;;;;5.00;5.00;;;;;-145.45;100.00;57426.63;5101144;27;45264;-74
2022/07/31 08:13:51;;;;;;;;;7.00;5.00;;;;;-145.45;100.00;57426.63;5082654;27;45261;-74
2022/07/31 08:16:20;;;;;;;;;6.00;6.00;;;;;-145.45;100.00;57426.63;5082299;27;46110;-73
2022/07/31 08:18:46;;;;;;;;;7.00;6.00;;;;;-145.45;100.00;57426.63;5100892;27;45230;-71
2022/07/31 08:21:11;;;;;;;;;8.00;6.67;;;;;-145.45;100.00;57426.63;5082263;27;45272;-74
2022/07/31 08:23:36;;;;;;;;;10.33;7.00;;;;;-145.45;100.00;57426.63;5082710;27;45308;-74
2022/07/31 08:26:03;;;;;;;;;6.00;5.00;;;;;-145.45;100.00;57426.63;5100547;27;45493;-74
2022/07/31 08:28:29;;;;;;;;;5.67;5.67;;;;;-145.45;100.00;57426.63;5080472;28;45371;-73
2022/07/31 08:30:54;;;;;;;;;5.33;5.00;;;;;-145.45;100.00;57426.63;5072356;28;45172;-74
2022/07/31 08:33:20;;;;;;;;;6.33;6.33;;;;;-145.45;100.00;57426.63;5080531;27;45159;-73
2022/07/31 08:35:48;;;;;;;;;5.00;5.00;;;;;-145.45;100.00;57426.63;5084976;27;45399;-71
2022/07/31 08:38:14;;;;;;;;;6.00;6.00;;;;;-145.45;100.00;57426.63;5079782;28;46759;-71
2022/07/31 08:40:40;;;;;;;;;6.00;6.00;;;;;-145.45;100.00;57426.63;5080015;28;45254;-74
2022/07/31 08:43:05;;;;;;;;;7.67;7.67;;;;;-145.45;100.00;57426.63;5080071;28;45245;-74
2022/07/31 08:45:30;;;;;;;;;6.33;6.33;;;;;-145.45;100.00;57426.63;5080178;28;45232;-74
2022/07/31 08:47:58;;;;;;;;;9.00;7.00;;;;;-145.45;100.00;57426.63;5079864;27;46197;-74
2022/07/31 08:50:24;;;;;;;;;7.67;7.67;;;;;-145.45;100.00;57426.63;5079841;28;45260;-71
2022/07/31 08:52:53;;;;;;;;;5.67;5.67;;;;;-145.45;100.00;57426.63;5079918;28;45342;-71
2022/07/31 08:55:21;;;;;;;;;6.00;6.00;;;;;-145.45;100.00;57426.63;5061414;28;46060;-71
2022/07/31 08:57:47;;;;;;;;;7.67;7.67;;;;;-145.45;100.00;57426.63;5079620;28;45169;-71
2022/07/31 09:00:16;;;;;;;;;8.33;6.00;;;;;-145.45;100.00;57426.63;5061468;27;46119;-71
2022/07/31 09:02:44;;;;;;;;;9.67;7.00;;;;;-145.45;100.00;57426.63;5079918;28;45343;-73
2022/07/31 09:05:10;;;;;;;;;6.00;6.00;;;;;-145.45;100.00;57426.63;5079824;28;45769;-74
2022/07/31 09:07:35;;;;;;;;;7.67;7.33;;;;;-145.45;100.00;57426.63;5079306;28;46234;-74
2022/07/31 09:10:06;;;;;;;;;7.00;7.00;;;;;-145.45;100.00;57426.63;5078244;27;45253;-74
2022/07/31 09:12:32;;;;;;;;;7.67;7.00;;;;;-145.45;100.00;57426.63;5079719;28;45348;-74
2022/07/31 09:14:58;;;;;;;;;8.00;7.00;;;;;-145.45;100.00;57426.63;5079624;28;45456;-73
2022/07/31 09:17:32;;;;;;;;;7.00;5.50;;;;;-145.45;100.00;57426.63;5079642;28;45299;-72
2022/07/31 09:19:57;;;;;;;;;7.00;7.00;;;;;-145.45;100.00;57426.63;5079453;28;45339;-74
2022/07/31 09:22:25;;;;;;;;;7.50;7.50;;;;;-145.45;100.00;57426.63;5079579;28;45331;-74
2022/07/31 09:24:52;;;;;;;;;7.50;7.00;;;;;-145.45;100.00;57426.63;5079378;27;45466;-71
2022/07/31 09:27:17;;;;;;;;;8.50;5.25;;;;;-145.45;100.00;57426.63;5067844;28;46861;-72
2022/07/31 09:29:47;;;;;;;;;7.50;6.75;;;;;-145.45;100.00;57426.63;5083007;27;45256;-73
2022/07/31 09:32:18;;;;;;;;;8.00;7.25;;;;;-145.45;100.00;57426.63;5099174;27;45403;-72
2022/07/31 09:34:45;;;;;;;;;6.25;6.25;;;;;-145.45;100.00;57426.63;5094552;27;46113;-72
2022/07/31 09:37:18;;;;;;;;;12.50;9.50;;;;;-145.45;100.00;57426.63;5079013;28;45307;-73
2022/07/31 09:39:50;;;;;;;;;6.25;6.25;;;;;-145.45;100.00;57426.63;5060549;28;45711;-73
2022/07/31 09:42:16;;;;;;;;;8.00;6.25;;;;;-145.45;100.00;57426.63;5078320;28;45276;-73
2022/07/31 09:44:43;;;;;;;;;9.00;8.25;;;;;-145.45;100.00;57426.63;5079280;28;45454;-72
2022/07/31 09:47:22;;;;;;;;;8.00;6.75;;;;;-145.45;100.00;57426.63;5079140;28;45248;-72
2022/07/31 09:49:53;;;;;;;;;6.00;6.00;;;;;-145.45;100.00;57426.63;5061044;28;45850;-73
2022/07/31 09:52:19;;;;;;;;;6.50;5.25;;;;;-145.45;100.00;57426.63;5073976;28;45235;-72
2022/07/31 09:54:45;;;;;;;;;6.25;6.25;;;;;-145.45;100.00;57426.63;5082038;28;45495;-72
2022/07/31 09:57:13;;;;;;;;;4.50;3.50;;;;;-145.45;100.00;57426.63;5082476;27;46062;-73
2022/07/31 09:59:38;;;;;;;;;6.00;5.50;;;;;-145.45;100.00;57426.63;5081999;28;45531;-72
2022/07/31 10:02:06;;;;;;;;;6.25;6.25;;;;;-145.45;100.00;57426.63;5082802;27;45400;-72
2022/07/31 10:04:32;;;;;;;;;4.75;4.75;;;;;-145.45;100.00;57426.63;5081827;27;45459;-74
2022/07/31 10:06:59;;;;;;;;;5.50;5.50;;;;;-145.45;100.00;57426.63;5082244;27;46076;-72
2022/07/31 10:09:26;;;;;;;;;6.20;5.80;;;;;-145.45;100.00;57426.63;5082479;27;45301;-72
2022/07/31 10:11:54;;;;;;;;;5.25;5.25;;;;;-145.45;100.00;57426.63;5064166;28;45335;-72
2022/07/31 10:14:29;;;;;;;;;7.00;7.00;;;;;-145.45;100.00;57426.63;5082413;27;45601;-73
2022/07/31 10:16:59;;;;;;;;;8.00;6.80;;;;;-145.45;100.00;57426.63;5082326;27;45412;-72
2022/07/31 10:19:30;;;;;;;;;5.00;5.00;;;;;-145.45;100.00;57426.63;5082389;27;45301;-73
2022/07/31 10:22:00;;;;;;;;;6.25;6.25;;;;;-145.45;100.00;57426.63;5089547;27;45236;-73
2022/07/31 10:24:30;;;;;;;;;7.75;6.75;;;;;-145.45;100.00;57426.63;5102651;27;45289;-73
2022/07/31 10:26:57;;;;;;;;;8.75;7.00;;;;;-145.45;100.00;57426.63;5094922;27;45264;-72
2022/07/31 10:29:24;;;;;;;;;6.20;6.20;;;;;-145.45;100.00;57426.63;5082120;28;45237;-73
2022/07/31 10:31:49;;;;;;;;;5.50;5.50;;;;;-145.45;100.00;57426.63;5068410;28;45223;-74
2022/07/31 10:34:15;;;;;;;;;4.75;4.75;;;;;-145.45;100.00;57426.63;5086653;27;45592;-73
2022/07/31 10:36:44;;;;;;;;;4.00;2.80;;;;;-145.45;100.00;57426.63;5081968;28;45345;-72
2022/07/31 10:39:34;;;;;;;;;6.00;5.60;;;;;-145.45;100.00;57426.63;5082043;27;45257;-72
2022/07/31 10:42:35;;;;;;;;;7.60;7.60;;;;;-145.45;100.00;57426.63;5063339;28;45238;-72
2022/07/31 10:45:09;;;;;;;;;8.00;7.50;;;;;-145.45;100.00;57426.63;5091391;27;45216;-72
2022/07/31 10:47:35;;;;;;;;;8.00;7.75;;;;;-145.45;100.00;57426.63;5102158;27;46487;-73
2022/07/31 10:50:01;;;;;;;;;4.50;4.50;;;;;-145.45;100.00;57426.63;5102574;27;45162;-72
2022/07/31 10:52:36;;;;;;;;;5.00;5.00;;;;;-145.45;100.00;57426.63;5102098;27;45416;-72
2022/07/31 10:55:13;;;;;;;;;4.20;4.20;;;;;-145.45;100.00;57426.63;5083346;27;46925;-71
2022/07/31 10:57:39;;;;;;;;;4.60;4.60;;;;;-145.45;100.00;57426.63;5102120;27;46269;-71
2022/07/31 11:00:10;;;;;;;;;4.00;4.00;;;;;-145.45;100.00;57426.63;5102301;27;45233;-71
2022/07/31 11:02:36;;;;;;;;;5.00;3.80;;;;;-145.45;100.00;57426.63;5102370;27;45252;-72
2022/07/31 11:05:15;;;;;;;;;2.75;2.75;;;;;-145.45;100.00;57426.63;5100736;27;45244;-72
2022/07/31 11:07:43;;;;;;;;;6.00;6.00;;;;;-145.45;100.00;57426.63;5101708;27;45473;-73
2022/07/31 11:10:13;;;;;;;;;4.80;3.60;;;;;-145.45;100.00;57426.63;5101921;27;45340;-73
2022/07/31 11:12:39;;;;;;;;;6.60;6.60;;;;;-145.45;100.00;57426.63;5102176;27;45224;-73
2022/07/31 11:15:23;;;;;;;;;5.00;5.00;;;;;-145.45;100.00;57426.63;5083034;27;45748;-73